Royal City, WA (99357)

3:19 PM PDT on March 29, 2017 (GMT -0700)
CHS ROYAL CITY | | Change Station

Elev 994 ft 46.89 °N, 119.62 °W | Updated 34 seconds ago

Mostly Cloudy
Mostly Cloudy
57.8 °F
Feels Like 57.8 °F
N
15.0
Wind Variable Wind from SSW

Today
High -- | Low -- °F
--% Chance of Precip.
Yesterday
High -- | Low -- °F
Precip. -- in
Pressure 29.85 in
Visibility 10.0 miles
Clouds Scattered Clouds 8500 ft
Dew Point 44 °F
Humidity 60%
Rainfall 0.18 in
Snow Depth Not available.
6:42 AM 7:24 PM
Waxing Crescent, 5% visible
METAR KMWH 292152Z 21009KT 10SM SCT085 13/07 A2984 RMK AO2 SLP106 T01330072
Pressure 29.85 in
Visibility 10.0 miles
Clouds Scattered Clouds 8500 ft
Dew Point 44 °F
Humidity 60%
Rainfall 0.18 in
Snow Depth Not available.
6:42 AM 7:24 PM
Waxing Crescent, 5% visible
METAR KMWH 292152Z 21009KT 10SM SCT085 13/07 A2984 RMK AO2 SLP106 T01330072

Get Severe Weather Alerts

Thanks for signing up!

Be on the lookout for a verification email in your inbox.

You'll start receiving the daily forecast at 8 AM.

×

10-Day Weather Forecast

Almanac

Astronomy

Mar. 29, 2017 Rise Set
Actual Time
Civil Twilight
Nautical Twilight
Astronomical Twilight
Moon
Length of Visible Light
Length of Day
Tomorrow will be .
, % of the Moon is Illuminated

Today's Extremes

State Highs State Lows

Community

WunderPhotos

Upload Photos

1,962,540 photos uploaded!

WunderBlog® & News

Nearby

Air Quality

  Air Quality AQ Index Pollutant
Not available.

Snow Depth

Station Depth Elevation

Earthquake Activity

City Distance Mag. Time & Date
Minimum magnitude displayed is 2.5.

Earthquake Activity

City Distance Mag. Time & Date
Minimum magnitude displayed is 2.5.

Coastal Water Temperatures

Place Temperature

Stations

Nearby Weather Stations

Station Location Temp. Windchill Dew Point Humidity Wind Precip. Elev Updated Type
                   

Watches & Warnings

There are currently no watches in effect.